GLO1756 SBBR-SBCT
Flight info
| Callsign | GLO1756 |
|---|---|
| Flight time | N/A |
| Altitude | 34000 |
| Route | OMNI/11L KUKOL UZ5 UMGUL |
| Aircraft | B738/M-SDFGIKLORWX/LB1 |
Departure
| Time | N/A |
|---|---|
| Airport | Presidente Juscelino Kubitschek International Airport (SBBR) |
Arrival
| Time | 2026-05-03 20:26 |
|---|---|
| Airport | Curitiba-Afonso Pena International Airport (SBCT) |
| Time | Latitude | Longitude | Altitude | Speed | Heading |
|---|---|---|---|---|---|
| 2026-05-03 20:15 | -25.00883 | -49.42240 | 10250 ft | 256 kts | 177° |
| 2026-05-03 20:15 | -25.02630 | -49.42076 | 10245 ft | 250 kts | 177° |
| 2026-05-03 20:15 | -25.04356 | -49.41916 | 10249 ft | 249 kts | 177° |
| 2026-05-03 20:15 | -25.06084 | -49.41757 | 10257 ft | 248 kts | 177° |
| 2026-05-03 20:16 | -25.07807 | -49.41601 | 10258 ft | 247 kts | 177° |
| 2026-05-03 20:16 | -25.09492 | -49.41446 | 10274 ft | 238 kts | 177° |
| 2026-05-03 20:16 | -25.11098 | -49.41300 | 10253 ft | 227 kts | 178° |
| 2026-05-03 20:16 | -25.12687 | -49.41157 | 10261 ft | 230 kts | 177° |
| 2026-05-03 20:17 | -25.14276 | -49.41013 | 10227 ft | 229 kts | 177° |
| 2026-05-03 20:17 | -25.15910 | -49.40864 | 9787 ft | 234 kts | 177° |
| 2026-05-03 20:17 | -25.17506 | -49.40731 | 9568 ft | 226 kts | 177° |
| 2026-05-03 20:17 | -25.19039 | -49.40589 | 9476 ft | 216 kts | 176° |
| 2026-05-03 20:18 | -25.20495 | -49.40469 | 9345 ft | 205 kts | 177° |
| 2026-05-03 20:18 | -25.21918 | -49.40341 | 8972 ft | 207 kts | 176° |
| 2026-05-03 20:18 | -25.23336 | -49.40208 | 8705 ft | 203 kts | 175° |
| 2026-05-03 20:18 | -25.24724 | -49.40070 | 8483 ft | 198 kts | 175° |
| 2026-05-03 20:19 | -25.26082 | -49.39942 | 8279 ft | 196 kts | 175° |
| 2026-05-03 20:19 | -25.27440 | -49.39816 | 8088 ft | 195 kts | 175° |
| 2026-05-03 20:19 | -25.28785 | -49.39693 | 7888 ft | 193 kts | 175° |
| 2026-05-03 20:19 | -25.30093 | -49.39574 | 7714 ft | 189 kts | 175° |
| 2026-05-03 20:20 | -25.31370 | -49.39458 | 7620 ft | 181 kts | 174° |
| 2026-05-03 20:20 | -25.32625 | -49.39343 | 7548 ft | 182 kts | 173° |
| 2026-05-03 20:20 | -25.33805 | -49.38862 | 7360 ft | 187 kts | 134° |
| 2026-05-03 20:20 | -25.34689 | -49.37824 | 7239 ft | 188 kts | 134° |
| 2026-05-03 20:21 | -25.35617 | -49.36811 | 7030 ft | 186 kts | 134° |
| 2026-05-03 20:21 | -25.36527 | -49.35812 | 6827 ft | 183 kts | 134° |
| 2026-05-03 20:21 | -25.37414 | -49.34828 | 6625 ft | 178 kts | 133° |
| 2026-05-03 20:21 | -25.38274 | -49.33867 | 6440 ft | 175 kts | 133° |
| 2026-05-03 20:22 | -25.39126 | -49.32913 | 6274 ft | 174 kts | 133° |
| 2026-05-03 20:22 | -25.39981 | -49.31956 | 6099 ft | 175 kts | 133° |
| 2026-05-03 20:22 | -25.40834 | -49.31002 | 5999 ft | 174 kts | 133° |
| 2026-05-03 20:22 | -25.41653 | -49.30089 | 5879 ft | 164 kts | 133° |
| 2026-05-03 20:23 | -25.42443 | -49.29204 | 5679 ft | 161 kts | 133° |
| 2026-05-03 20:23 | -25.43235 | -49.28317 | 5477 ft | 162 kts | 133° |
| 2026-05-03 20:23 | -25.44027 | -49.27431 | 5260 ft | 162 kts | 133° |
| 2026-05-03 20:23 | -25.44820 | -49.26547 | 5045 ft | 160 kts | 133° |
| 2026-05-03 20:24 | -25.45582 | -49.25697 | 4834 ft | 154 kts | 133° |
| 2026-05-03 20:24 | -25.46319 | -49.24871 | 4624 ft | 150 kts | 133° |
| 2026-05-03 20:24 | -25.47053 | -49.24048 | 4441 ft | 151 kts | 132° |
| 2026-05-03 20:24 | -25.47795 | -49.23218 | 4231 ft | 152 kts | 133° |
| 2026-05-03 20:25 | -25.48540 | -49.22392 | 4036 ft | 151 kts | 134° |
| 2026-05-03 20:25 | -25.49271 | -49.21568 | 3830 ft | 149 kts | 133° |
| 2026-05-03 20:25 | -25.49997 | -49.20757 | 3634 ft | 149 kts | 133° |
| 2026-05-03 20:25 | -25.50729 | -49.19937 | 3444 ft | 150 kts | 134° |
| 2026-05-03 20:26 | -25.51469 | -49.19108 | 3233 ft | 152 kts | 134° |
| 2026-05-03 20:26 | -25.52214 | -49.18284 | 3039 ft | 152 kts | 134° |
| 2026-05-03 20:26 | -25.52872 | -49.17549 | 2988 ft | 94 kts | 135° |
| 2026-05-03 20:26 | -25.53074 | -49.17323 | 2992 ft | 6 kts | 134° |
| 2026-05-03 20:27 | -25.53105 | -49.17287 | 2992 ft | 6 kts | 134° |
| 2026-05-03 20:27 | -25.53141 | -49.17277 | 2992 ft | 6 kts | 209° |
| 2026-05-03 20:27 | -25.53175 | -49.17315 | 2992 ft | 8 kts | 225° |
| 2026-05-03 20:27 | -25.53187 | -49.17329 | 2992 ft | 3 kts | 225° |
| 2026-05-03 20:28 | -25.53203 | -49.17346 | 2992 ft | 4 kts | 225° |
| 2026-05-03 20:28 | -25.53231 | -49.17361 | 2992 ft | 5 kts | 180° |
| 2026-05-03 20:28 | -25.53261 | -49.17340 | 2992 ft | 6 kts | 134° |
| 2026-05-03 20:28 | -25.53290 | -49.17306 | 2993 ft | 7 kts | 134° |
| 2026-05-03 20:29 | -25.53326 | -49.17266 | 2992 ft | 8 kts | 134° |
| 2026-05-03 20:29 | -25.53374 | -49.17213 | 2991 ft | 11 kts | 135° |
| 2026-05-03 20:29 | -25.53426 | -49.17154 | 2990 ft | 6 kts | 134° |
| 2026-05-03 20:29 | -25.53450 | -49.17128 | 2990 ft | 4 kts | 134° |
| 2026-05-03 20:30 | -25.53468 | -49.17107 | 2990 ft | 4 kts | 134° |
| 2026-05-03 20:30 | -25.53485 | -49.17088 | 2990 ft | 4 kts | 134° |
| 2026-05-03 20:30 | -25.53502 | -49.17068 | 2990 ft | 3 kts | 135° |
| 2026-05-03 20:30 | -25.53519 | -49.17050 | 2990 ft | 3 kts | 135° |
| 2026-05-03 20:31 | -25.53536 | -49.17031 | 2990 ft | 3 kts | 135° |
| 2026-05-03 20:31 | -25.53555 | -49.17013 | 2990 ft | 4 kts | 148° |
| 2026-05-03 20:31 | -25.53579 | -49.17014 | 2990 ft | 4 kts | 206° |
| 2026-05-03 20:31 | -25.53597 | -49.17034 | 2989 ft | 4 kts | 220° |
| 2026-05-03 20:32 | -25.53622 | -49.17041 | 2989 ft | 4 kts | 177° |
| 2026-05-03 20:32 | -25.53645 | -49.17029 | 2989 ft | 4 kts | 142° |
| 2026-05-03 20:32 | -25.53663 | -49.17009 | 2989 ft | 4 kts | 135° |
| 2026-05-03 20:32 | -25.53681 | -49.16989 | 2989 ft | 4 kts | 135° |
| 2026-05-03 20:33 | -25.53699 | -49.16969 | 2989 ft | 4 kts | 135° |
| 2026-05-03 20:33 | -25.53716 | -49.16950 | 2989 ft | 3 kts | 135° |
| 2026-05-03 20:33 | -25.53733 | -49.16931 | 2990 ft | 3 kts | 135° |
| 2026-05-03 20:33 | -25.53749 | -49.16913 | 2990 ft | 3 kts | 135° |
| 2026-05-03 20:34 | -25.53766 | -49.16897 | 2990 ft | 3 kts | 155° |
| 2026-05-03 20:34 | -25.53786 | -49.16906 | 2992 ft | 3 kts | 223° |
| 2026-05-03 20:34 | -25.53800 | -49.16923 | 2992 ft | 3 kts | 226° |
| 2026-05-03 20:34 | -25.53809 | -49.16933 | 2992 ft | 2 kts | 225° |
| 2026-05-03 20:35 | -25.53817 | -49.16942 | 2992 ft | 0 kts | 225° |